Bad River Indian Reservation, Wisconsin
Current Conditions -  °F | °C
As of 8:53 PM on Tuesday 21 Oct 2014 (Local Time) from KASX Reporting Station
Clear Clear  
Wind Chill: 37°   Ceiling: Unl
Heat Index: 37°   Visibility: 10mi
Dew Point: 36°   Wind: 3mph
Humidity: 96%   Direction: 80°E
Pressure: 30.24"   Gusts: NA
Location:  46.543°N, 90.8706°W
Report Text: KASX 220153Z AUTO 08003KT 10SM CLR 03/02 A3024 RMK AO2 SLP251 T00280022
Loading
Personal Weather Stations






























Interactive Weather Map
Tropical Storm Tracking
New forecast layout! Learn more

10-Day Weather Forecast

Advertisements
Track Severe Weather on mobile